Time;durP1;ratioP1;P1;durP2;ratioP2;P2;SDS_P1;SDS_P2;PMS_P1;PMS_P2;Temp;Humidity;BMP_temperature;BMP_pressure;BME280_temperature;BME280_humidity;BME280_pressure;Samples;Min_cycle;Max_cycle;Signal;HPM_P1;HPM_P2
2022/10/29 00:00:54;;;;;;;7.57;3.50;;;;;;;14.38;nan;101161.94;5098194;28;20024;-68
2022/10/29 00:03:20;;;;;;;7.72;3.67;;;;;;;14.35;nan;101163.09;5087411;28;20086;-68
2022/10/29 00:06:00;;;;;;;5.68;3.17;;;;;;;14.31;nan;101151.09;5090713;28;20031;-68
2022/10/29 00:08:27;;;;;;;7.15;2.90;;;;;;;14.25;nan;101159.72;5086063;28;20044;-68
2022/10/29 00:10:53;;;;;;;8.05;3.40;;;;;;;14.17;nan;101154.38;5084705;28;20058;-67
2022/10/29 00:13:18;;;;;;;8.15;3.80;;;;;;;14.14;nan;101154.72;5082826;28;20062;-67
2022/10/29 00:15:43;;;;;;;8.52;3.72;;;;;;;14.07;nan;101146.53;5087046;28;20040;-67
2022/10/29 00:18:08;;;;;;;5.53;3.30;;;;;;;14.02;nan;101156.81;5086967;28;20039;-68
2022/10/29 00:20:34;;;;;;;7.23;4.00;;;;;;;13.96;nan;101144.97;5068974;28;20051;-68
2022/10/29 00:22:59;;;;;;;7.73;4.10;;;;;;;13.95;nan;101147.81;5083492;28;20279;-68
2022/10/29 00:25:34;;;;;;;13.02;5.22;;;;;;;13.95;nan;101150.47;5065698;28;20296;-67
2022/10/29 00:27:59;;;;;;;10.07;4.07;;;;;;;13.94;nan;101152.28;5065178;28;20465;-68
2022/10/29 00:30:25;;;;;;;10.07;3.97;;;;;;;13.91;nan;101141.94;5079297;28;20040;-68
2022/10/29 00:32:50;;;;;;;7.50;3.90;;;;;;;13.93;nan;101155.94;5080308;28;21429;-67
2022/10/29 00:35:15;;;;;;;7.85;3.38;;;;;;;13.91;nan;101146.44;5087349;28;20040;-67
2022/10/29 00:37:40;;;;;;;5.95;3.15;;;;;;;13.88;nan;101155.56;5088859;28;20075;-67
2022/10/29 00:40:07;;;;;;;7.22;3.58;;;;;;;13.85;nan;101157.69;5088023;28;20036;-70
2022/10/29 00:42:32;;;;;;;6.32;3.40;;;;;;;13.84;nan;101161.34;5087582;28;20044;-67
2022/10/29 00:44:57;;;;;;;5.33;3.43;;;;;;;13.85;nan;101149.72;5089305;28;20059;-67
2022/10/29 00:47:27;;;;;;;5.30;3.00;;;;;;;13.90;nan;101160.75;5086751;28;20286;-67
2022/10/29 00:50:11;;;;;;;5.72;2.80;;;;;;;13.95;nan;101156.59;5088433;28;20286;-67
2022/10/29 00:52:43;;;;;;;9.85;4.90;;;;;;;14.01;nan;101158.63;5083363;28;20036;-67
2022/10/29 00:55:10;;;;;;;9.35;4.20;;;;;;;14.06;nan;101168.78;5084536;28;20085;-67
2022/10/29 00:57:39;;;;;;;6.85;4.43;;;;;;;14.11;nan;101171.81;5085179;28;20132;-67
2022/10/29 01:00:05;;;;;;;5.97;3.63;;;;;;;14.14;nan;101170.66;5087267;28;20062;-67
2022/10/29 01:02:33;;;;;;;6.47;3.45;;;;;;;14.18;nan;101164.88;5089998;28;20035;-67
2022/10/29 01:05:00;;;;;;;6.68;3.40;;;;;;;14.22;nan;101162.72;5090609;28;20031;-67
2022/10/29 01:07:26;;;;;;;7.00;3.92;;;;;;;14.24;nan;101172.19;5079018;28;20044;-67
2022/10/29 01:09:51;;;;;;;7.15;3.78;;;;;;;14.27;nan;101164.88;5079846;28;20028;-67
2022/10/29 01:12:53;;;;;;;7.60;3.70;;;;;;;14.31;nan;101164.41;5089657;28;20040;-67
2022/10/29 01:15:57;;;;;;;7.18;3.80;;;;;;;14.35;nan;101154.25;5090858;28;20453;-67
2022/10/29 01:18:25;;;;;;;5.43;3.47;;;;;;;14.35;nan;101163.09;5090798;28;20143;-68
2022/10/29 01:21:07;;;;;;;7.82;4.10;;;;;;;14.35;nan;101171.09;5082015;28;20475;-67
2022/10/29 01:24:10;;;;;;;8.85;4.35;;;;;;;14.41;nan;101169.59;5089249;28;20047;-67
2022/10/29 01:27:10;;;;;;;8.07;4.15;;;;;;;14.42;nan;101165.97;5069986;28;20048;-67
2022/10/29 01:30:03;;;;;;;5.78;3.58;;;;;;;14.40;nan;101168.78;5079446;28;20033;-67
2022/10/29 01:32:59;;;;;;;6.80;3.47;;;;;;;14.32;nan;101168.72;5088492;28;20047;-68
2022/10/29 01:35:41;;;;;;;5.78;3.78;;;;;;;14.22;nan;101166.19;5081063;28;20041;-66
2022/10/29 01:38:24;;;;;;;7.28;3.50;;;;;;;14.12;nan;101165.50;5069800;28;20524;-68
2022/10/29 01:41:14;;;;;;;6.45;3.55;;;;;;;14.06;nan;101159.97;5088249;28;20439;-68
2022/10/29 01:43:55;;;;;;;6.63;3.20;;;;;;;13.99;nan;101154.44;5091259;28;20060;-67
2022/10/29 01:46:29;;;;;;;7.03;2.83;;;;;;;13.91;nan;101151.75;5070452;28;20032;-67
2022/10/29 01:48:59;;;;;;;10.55;3.38;;;;;;;13.86;nan;101154.88;5084120;28;20382;-67
2022/10/29 01:51:32;;;;;;;6.13;3.07;;;;;;;13.81;nan;101158.00;5084769;28;20075;-68
2022/10/29 01:54:00;;;;;;;7.05;3.47;;;;;;;13.77;nan;101151.34;5089861;28;20455;-68
2022/10/29 01:56:25;;;;;;;8.45;4.28;;;;;;;13.80;nan;101144.91;5087017;28;20809;-67
2022/10/29 01:58:55;;;;;;;12.77;4.38;;;;;;;13.80;nan;101140.41;5083454;28;20079;-67
2022/10/29 02:01:35;;;;;;;9.32;4.45;;;;;;;13.77;nan;101143.38;5085227;28;20073;-67
2022/10/29 02:04:36;;;;;;;5.72;3.80;;;;;;;13.75;nan;101144.50;5086921;28;20462;-67
2022/10/29 02:07:14;;;;;;;6.40;3.80;;;;;;;13.71;nan;101146.66;5092615;28;20032;-67
2022/10/29 02:10:01;;;;;;;10.68;3.78;;;;;;;13.66;nan;101146.31;5086469;28;20351;-68
2022/10/29 02:12:29;;;;;;;6.90;3.95;;;;;;;13.67;nan;101140.00;5085011;28;20742;-67
2022/10/29 02:15:21;;;;;;;11.55;4.53;;;;;;;13.68;nan;101139.03;5079059;28;20108;-67
2022/10/29 02:17:46;;;;;;;;;;;;;;;13.68;nan;101136.38;5042639;28;20044;-67
2022/10/29 02:20:13;;;;;;;9.38;4.28;;;;;;;13.69;nan;101138.00;5087782;28;19922;-68
2022/10/29 02:22:39;;;;;;;9.13;4.10;;;;;;;13.73;nan;101135.88;5090829;28;20044;-67
2022/10/29 02:25:05;;;;;;;8.25;4.07;;;;;;;13.78;nan;101134.41;5094536;28;20043;-67
2022/10/29 02:27:30;;;;;;;9.25;4.35;;;;;;;13.80;nan;101128.94;5087295;28;20036;-67
2022/10/29 02:29:55;;;;;;;10.75;5.20;;;;;;;13.84;nan;101132.94;5087512;28;20046;-67
2022/10/29 02:32:21;;;;;;;8.50;4.20;;;;;;;13.90;nan;101134.97;5086476;28;20032;-68
2022/10/29 02:34:46;;;;;;;9.87;4.70;;;;;;;13.96;nan;101126.34;5069266;28;20278;-67
2022/10/29 02:37:11;;;;;;;9.75;4.80;;;;;;;13.97;nan;101124.56;5087426;28;21014;-68
2022/10/29 02:39:36;;;;;;;9.95;4.78;;;;;;;13.92;nan;101126.81;5087317;28;20032;-67
2022/10/29 02:42:02;;;;;;;7.50;4.10;;;;;;;13.88;nan;101121.00;5085339;28;20044;-68
2022/10/29 02:44:27;;;;;;;8.02;3.83;;;;;;;13.86;nan;101117.66;5085648;28;20781;-67
2022/10/29 02:46:52;;;;;;;8.03;4.00;;;;;;;13.86;nan;101119.50;5085933;28;20050;-68
2022/10/29 02:49:18;;;;;;;6.00;3.30;;;;;;;13.80;nan;101124.47;5082952;28;20294;-67
2022/10/29 02:51:43;;;;;;;6.55;3.50;;;;;;;13.75;nan;101121.44;5087183;28;20291;-67
2022/10/29 02:54:08;;;;;;;7.05;3.70;;;;;;;13.72;nan;101115.59;5086304;28;20024;-68
2022/10/29 02:56:33;;;;;;;8.07;3.93;;;;;;;13.72;nan;101116.44;5068949;28;20566;-67
2022/10/29 02:58:59;;;;;;;7.55;3.88;;;;;;;13.73;nan;101120.78;5086260;28;20273;-67
2022/10/29 03:01:24;;;;;;;10.98;4.68;;;;;;;13.75;nan;101124.13;5087094;28;20113;-67
2022/10/29 03:03:49;;;;;;;9.45;4.03;;;;;;;13.75;nan;101124.13;5087470;28;20024;-68
2022/10/29 03:06:17;;;;;;;7.05;3.60;;;;;;;13.70;nan;101113.09;5092930;28;20497;-68
2022/10/29 03:08:42;;;;;;;5.47;3.10;;;;;;;13.66;nan;101117.06;5087465;28;20034;-67
2022/10/29 03:11:08;;;;;;;7.90;3.47;;;;;;;13.62;nan;101125.53;5079933;28;20116;-67
2022/10/29 03:13:33;;;;;;;9.00;4.03;;;;;;;13.55;nan;101123.47;5085854;28;20028;-67
2022/10/29 03:15:59;;;;;;;7.35;3.47;;;;;;;13.50;nan;101122.28;5085940;28;20044;-67
2022/10/29 03:18:24;;;;;;;9.98;3.95;;;;;;;13.45;nan;101125.41;5068098;28;20046;-68
2022/10/29 03:20:49;;;;;;;6.40;3.13;;;;;;;13.38;nan;101130.50;5086419;28;20447;-67
2022/10/29 03:23:14;;;;;;;6.15;3.20;;;;;;;13.33;nan;101121.34;5091346;28;20036;-68
2022/10/29 03:25:40;;;;;;;6.97;3.42;;;;;;;13.27;nan;101111.31;5085485;28;20044;-67
2022/10/29 03:28:05;;;;;;;6.47;3.67;;;;;;;13.26;nan;101117.63;5085491;28;20069;-67
2022/10/29 03:30:31;;;;;;;4.60;2.88;;;;;;;13.22;nan;101119.72;5084320;28;20036;-67
2022/10/29 03:32:56;;;;;;;5.22;3.65;;;;;;;13.19;nan;101109.41;5086496;28;20036;-67
2022/10/29 03:35:21;;;;;;;7.27;3.87;;;;;;;13.18;nan;101107.78;5086386;28;20089;-67
2022/10/29 03:37:50;;;;;;;5.68;3.60;;;;;;;13.17;nan;101111.41;5084837;28;20288;-67
2022/10/29 03:40:17;;;;;;;5.05;3.28;;;;;;;13.14;nan;101101.09;5085043;28;20560;-68
2022/10/29 03:42:42;;;;;;;4.63;2.92;;;;;;;13.12;nan;101105.72;5086215;28;20072;-67
2022/10/29 03:45:09;;;;;;;4.72;3.03;;;;;;;13.08;nan;101107.84;5085920;28;20067;-67
2022/10/29 03:47:34;;;;;;;6.90;3.15;;;;;;;13.07;nan;101110.66;5084873;28;20404;-67
2022/10/29 03:49:59;;;;;;;4.68;2.50;;;;;;;13.10;nan;101110.34;5081458;28;20123;-67
2022/10/29 03:52:25;;;;;;;5.85;3.15;;;;;;;13.16;nan;101107.91;5067573;28;20071;-67
2022/10/29 03:54:50;;;;;;;8.93;4.20;;;;;;;13.19;nan;101112.06;5066750;28;20463;-67
2022/10/29 03:57:15;;;;;;;9.03;4.00;;;;;;;13.26;nan;101110.47;5085615;28;20093;-68
2022/10/29 03:59:41;;;;;;;6.65;3.90;;;;;;;13.31;nan;101120.66;5086889;28;20643;-67
2022/10/29 04:02:06;;;;;;;6.95;3.70;;;;;;;13.38;nan;101122.53;5086137;28;20064;-68
2022/10/29 04:04:31;;;;;;;7.93;4.10;;;;;;;13.42;nan;101132.84;5086283;28;20036;-67
2022/10/29 04:06:57;;;;;;;4.85;3.42;;;;;;;13.47;nan;101133.25;5089385;28;20040;-68
2022/10/29 04:09:22;;;;;;;5.25;3.38;;;;;;;13.48;nan;101137.56;5086149;28;20109;-67
2022/10/29 04:11:47;;;;;;;5.70;3.30;;;;;;;13.49;nan;101123.25;5091807;28;20032;-67
2022/10/29 04:14:12;;;;;;;5.70;3.37;;;;;;;13.47;nan;101114.63;5090960;28;20032;-68
2022/10/29 04:16:38;;;;;;;6.50;3.87;;;;;;;13.50;nan;101120.47;5091790;28;20293;-67
2022/10/29 04:19:03;;;;;;;8.63;4.70;;;;;;;13.54;nan;101118.34;5091279;28;20278;-67
2022/10/29 04:21:28;;;;;;;;;;;;;;;13.57;nan;101118.84;5090552;28;20035;-67
2022/10/29 04:23:54;;;;;;;6.93;3.73;;;;;;;13.61;nan;101116.72;5099552;28;19931;-67
2022/10/29 04:26:19;;;;;;;5.10;3.45;;;;;;;13.68;nan;101116.91;5091280;28;20639;-68
2022/10/29 04:28:53;;;;;;;7.25;3.45;;;;;;;13.74;nan;101117.09;5091529;28;20089;-68
2022/10/29 04:31:18;;;;;;;5.32;3.30;;;;;;;13.81;nan;101119.97;5092376;28;20035;-67
2022/10/29 04:33:45;;;;;;;6.45;2.90;;;;;;;13.87;nan;101114.03;5074299;28;20408;-67
2022/10/29 04:36:10;;;;;;;6.05;3.25;;;;;;;13.93;nan;101115.22;5091036;28;20040;-68
2022/10/29 04:38:35;;;;;;;7.00;3.67;;;;;;;13.98;nan;101112.91;5074978;28;20400;-67
2022/10/29 04:41:01;;;;;;;7.00;3.20;;;;;;;14.02;nan;101116.94;5091639;28;20044;-67
2022/10/29 04:43:27;;;;;;;6.32;3.55;;;;;;;14.06;nan;101117.41;5092346;28;20040;-67
2022/10/29 04:45:55;;;;;;;5.55;3.50;;;;;;;14.07;nan;101111.94;5091693;28;20035;-68
2022/10/29 04:48:21;;;;;;;8.10;3.53;;;;;;;14.11;nan;101115.97;5092221;28;20032;-68
2022/10/29 04:50:47;;;;;;;4.93;3.10;;;;;;;14.14;nan;101114.81;5088813;28;20281;-67
2022/10/29 04:53:12;;;;;;;6.30;3.60;;;;;;;14.15;nan;101111.97;5091973;28;20031;-67
2022/10/29 04:55:38;;;;;;;5.45;3.15;;;;;;;14.18;nan;101114.34;5092412;28;20568;-67
2022/10/29 04:58:05;;;;;;;4.55;3.20;;;;;;;14.22;nan;101115.66;5092914;28;20073;-68
2022/10/29 05:00:31;;;;;;;4.03;2.88;;;;;;;14.26;nan;101102.06;5092287;28;20400;-68
2022/10/29 05:02:57;;;;;;;5.45;2.90;;;;;;;14.29;nan;101105.19;5091780;28;20041;-68
2022/10/29 05:05:22;;;;;;;4.88;2.70;;;;;;;14.31;nan;101100.56;5099384;28;20506;-67
2022/10/29 05:07:48;;;;;;;9.20;4.72;;;;;;;14.30;nan;101106.03;5100147;27;20032;-67
2022/10/29 05:10:13;;;;;;;7.80;4.03;;;;;;;14.31;nan;101095.25;5092341;28;20434;-68
2022/10/29 05:12:39;;;;;;;5.93;3.30;;;;;;;14.35;nan;101095.72;5092806;28;20040;-67
2022/10/29 05:15:05;;;;;;;7.80;3.80;;;;;;;14.37;nan;101086.63;5075279;28;20031;-67
2022/10/29 05:17:35;;;;;;;7.53;3.85;;;;;;;14.40;nan;101085.47;5075311;28;20039;-68
2022/10/29 05:20:00;;;;;;;6.07;3.47;;;;;;;14.43;nan;101090.44;5091990;28;20108;-68
2022/10/29 05:22:25;;;;;;;7.85;3.72;;;;;;;14.43;nan;101085.13;5090510;28;20077;-68
2022/10/29 05:24:50;;;;;;;5.53;3.40;;;;;;;14.43;nan;101080.63;5078322;28;20127;-68
2022/10/29 05:27:16;;;;;;;7.32;3.17;;;;;;;14.44;nan;101089.44;5087906;28;20036;-67
2022/10/29 05:29:41;;;;;;;7.22;3.33;;;;;;;14.44;nan;101087.63;5087894;28;20036;-67
2022/10/29 05:32:06;;;;;;;4.50;2.90;;;;;;;14.46;nan;101087.44;5087243;28;20032;-68
2022/10/29 05:34:31;;;;;;;8.73;4.17;;;;;;;14.47;nan;101089.13;5088966;28;20289;-67
2022/10/29 05:36:57;;;;;;;8.90;4.00;;;;;;;14.49;nan;101086.28;5088648;28;20642;-67
2022/10/29 05:39:22;;;;;;;7.65;4.18;;;;;;;14.49;nan;101087.16;5088661;28;20042;-68
2022/10/29 05:41:47;;;;;;;9.18;4.20;;;;;;;14.50;nan;101088.81;5088012;28;20036;-68
2022/10/29 05:44:13;;;;;;;9.48;4.45;;;;;;;14.50;nan;101088.81;5088071;28;20055;-68
2022/10/29 05:46:38;;;;;;;7.75;3.78;;;;;;;14.50;nan;101086.13;5088006;28;20503;-68
2022/10/29 05:49:03;;;;;;;6.53;3.67;;;;;;;14.52;nan;101091.31;5087483;28;20059;-68
2022/10/29 05:51:29;;;;;;;6.65;3.75;;;;;;;14.50;nan;101086.13;5068339;28;20289;-68
2022/10/29 05:53:54;;;;;;;5.03;3.67;;;;;;;14.48;nan;101088.13;5087843;28;20032;-68
2022/10/29 05:56:19;;;;;;;7.43;4.00;;;;;;;14.48;nan;101085.47;5089456;28;20174;-68
2022/10/29 05:58:48;;;;;;;6.67;4.37;;;;;;;14.44;nan;101097.41;5088514;28;20293;-67
2022/10/29 06:01:13;;;;;;;9.02;5.22;;;;;;;14.41;nan;101090.59;5088108;28;20292;-68
2022/10/29 06:03:38;;;;;;;7.57;5.45;;;;;;;14.40;nan;101090.78;5088346;28;20032;-68
2022/10/29 06:06:04;;;;;;;11.50;6.93;;;;;;;14.38;nan;101085.63;5094177;28;20044;-68
2022/10/29 06:08:29;;;;;;;10.75;6.65;;;;;;;14.40;nan;101085.47;5088354;28;20411;-68
2022/10/29 06:10:54;;;;;;;8.63;5.97;;;;;;;14.39;nan;101083.78;5087810;28;20416;-68
2022/10/29 06:13:21;;;;;;;8.43;5.60;;;;;;;14.41;nan;101085.28;5087316;28;20294;-68
2022/10/29 06:15:47;;;;;;;16.33;8.10;;;;;;;14.39;nan;101086.44;5088573;28;20332;-68
2022/10/29 06:18:13;;;;;;;10.07;7.00;;;;;;;14.35;nan;101085.94;5087178;28;20643;-68
2022/10/29 06:20:39;;;;;;;13.13;7.60;;;;;;;14.32;nan;101091.56;5079972;28;20063;-68
2022/10/29 06:23:05;;;;;;;12.23;6.70;;;;;;;14.32;nan;101098.72;5091391;28;20047;-68
2022/10/29 06:25:31;;;;;;;10.52;6.10;;;;;;;14.34;nan;101097.56;5087894;28;20074;-67
2022/10/29 06:28:02;;;;;;;7.25;4.93;;;;;;;14.38;nan;101098.91;5086855;28;20032;-68
2022/10/29 06:30:29;;;;;;;8.55;5.00;;;;;;;14.40;nan;101104.91;5086767;28;20040;-68
2022/10/29 06:32:55;;;;;;;9.73;5.28;;;;;;;14.42;nan;101105.59;5086656;28;20056;-67
2022/10/29 06:35:20;;;;;;;9.15;4.68;;;;;;;14.48;nan;101112.06;5084951;28;20078;-68
2022/10/29 06:37:45;;;;;;;9.95;4.82;;;;;;;14.50;nan;101104.75;5087784;28;20040;-67
2022/10/29 06:40:11;;;;;;;10.25;5.40;;;;;;;14.56;nan;101103.28;5085967;28;20118;-68
2022/10/29 06:42:36;;;;;;;12.30;5.72;;;;;;;14.62;nan;101106.16;5086917;28;20032;-68
2022/10/29 06:45:01;;;;;;;9.50;5.20;;;;;;;14.67;nan;101104.81;5087777;28;20500;-67
2022/10/29 06:47:27;;;;;;;9.23;4.80;;;;;;;14.70;nan;101110.63;5087989;28;20290;-67
2022/10/29 06:49:52;;;;;;;8.95;4.40;;;;;;;14.74;nan;101106.66;5085950;28;20401;-68
2022/10/29 06:52:17;;;;;;;7.63;4.40;;;;;;;14.76;nan;101104.66;5085860;28;20036;-68
2022/10/29 06:54:42;;;;;;;10.20;4.38;;;;;;;14.80;nan;101106.00;5087941;28;20540;-68
2022/10/29 06:57:08;;;;;;;7.35;4.22;;;;;;;14.83;nan;101105.69;5085343;28;20035;-68
2022/10/29 06:59:33;;;;;;;7.43;4.10;;;;;;;14.90;nan;101112.97;5086492;28;20048;-68
2022/10/29 07:01:58;;;;;;;8.35;4.40;;;;;;;14.95;nan;101119.50;5086805;28;20028;-68
2022/10/29 07:04:24;;;;;;;6.07;3.70;;;;;;;15.02;nan;101114.34;5068150;28;20075;-68
2022/10/29 07:06:49;;;;;;;7.43;3.75;;;;;;;15.08;nan;101113.66;5088504;28;20032;-68
2022/10/29 07:09:14;;;;;;;6.80;3.00;;;;;;;15.14;nan;101114.84;5065760;28;20097;-68
2022/10/29 07:11:40;;;;;;;8.43;3.20;;;;;;;15.21;nan;101113.19;5087499;28;20075;-68
2022/10/29 07:14:07;;;;;;;5.20;3.20;;;;;;;15.31;nan;101115.66;5087512;28;20074;-68
2022/10/29 07:16:33;;;;;;;5.10;3.20;;;;;;;15.37;nan;101121.13;5084572;28;20041;-68
2022/10/29 07:18:58;;;;;;;3.50;2.45;;;;;;;15.45;nan;101122.97;5087892;28;20028;-68
2022/10/29 07:21:23;;;;;;;4.40;3.10;;;;;;;15.54;nan;101118.44;5091687;28;20043;-68
2022/10/29 07:23:48;;;;;;;5.35;2.92;;;;;;;15.64;nan;101127.09;5099677;28;20058;-68
2022/10/29 07:26:14;;;;;;;5.53;2.50;;;;;;;15.74;nan;101118.94;5103909;28;20036;-68
2022/10/29 07:28:39;;;;;;;4.85;2.90;;;;;;;15.83;nan;101125.91;5087912;28;20266;-68
2022/10/29 07:31:06;;;;;;;4.33;2.77;;;;;;;15.90;nan;101125.06;5088166;28;20153;-68
2022/10/29 07:33:32;;;;;;;4.32;2.55;;;;;;;16.03;nan;101131.66;5087643;28;20278;-68
2022/10/29 07:35:58;;;;;;;4.53;2.40;;;;;;;16.13;nan;101135.78;5088237;28;20040;-68
2022/10/29 07:38:24;;;;;;;4.53;2.60;;;;;;;16.24;nan;101133.75;5069102;28;20380;-68
2022/10/29 07:40:49;;;;;;;6.35;2.83;;;;;;;16.33;nan;101138.88;5088228;28;20024;-68
2022/10/29 07:43:18;;;;;;;4.22;2.75;;;;;;;16.46;nan;101129.47;5081351;28;20499;-68
2022/10/29 07:45:45;;;;;;;3.95;2.45;;;;;;;16.62;nan;101134.72;5068848;28;20500;-68
2022/10/29 07:48:10;;;;;;;4.20;2.88;;;;;;;16.80;nan;101134.44;5086960;28;20043;-68
2022/10/29 07:50:37;;;;;;;4.38;2.47;;;;;;;16.96;nan;101138.84;5068340;28;20033;-68
2022/10/29 07:53:03;;;;;;;4.55;2.70;;;;;;;17.12;nan;101138.72;5076786;28;20031;-68
2022/10/29 07:55:29;;;;;;;5.03;2.60;;;;;;;17.27;nan;101140.59;5069718;28;20044;-68
2022/10/29 07:57:57;;;;;;;5.82;2.85;;;;;;;17.35;nan;101153.88;5087909;28;20528;-68
2022/10/29 08:00:23;;;;;;;3.83;2.38;;;;;;;17.53;nan;101140.19;5087238;28;20451;-68
2022/10/29 08:02:53;;;;;;;4.30;2.65;;;;;;;17.75;nan;101146.47;5082893;28;20058;-68
2022/10/29 08:05:19;;;;;;;5.57;2.80;;;;;;;17.95;nan;101131.56;5088237;28;20024;-68
2022/10/29 08:07:44;;;;;;;4.65;2.80;;;;;;;18.10;nan;101141.44;5092838;28;20047;-68
2022/10/29 08:10:09;;;;;;;4.67;2.90;;;;;;;18.25;nan;101132.34;5087108;28;20442;-68
2022/10/29 08:12:34;;;;;;;5.47;3.23;;;;;;;18.43;nan;101134.63;5087554;28;20270;-68
2022/10/29 08:15:00;;;;;;;5.65;3.00;;;;;;;18.56;nan;101139.28;5087633;28;20306;-68
2022/10/29 08:17:28;;;;;;;4.72;2.70;;;;;;;18.73;nan;101129.16;5087155;28;20517;-68
2022/10/29 08:19:53;;;;;;;3.42;2.53;;;;;;;18.85;nan;101137.56;5087628;28;20032;-68
2022/10/29 08:22:19;;;;;;;5.38;3.20;;;;;;;18.90;nan;101135.13;5092641;28;20039;-68
2022/10/29 08:24:44;;;;;;;4.22;2.83;;;;;;;18.93;nan;101133.94;5096521;28;20627;-68
2022/10/29 08:27:09;;;;;;;6.85;2.90;;;;;;;18.96;nan;101139.75;5088404;28;20032;-68
2022/10/29 08:29:34;;;;;;;4.03;2.65;;;;;;;19.03;nan;101145.16;5087898;28;20111;-68
2022/10/29 08:32:00;;;;;;;6.03;3.28;;;;;;;19.08;nan;101140.88;5086619;28;20032;-68
2022/10/29 08:34:25;;;;;;;5.63;3.42;;;;;;;19.10;nan;101136.16;5087511;28;20515;-68
2022/10/29 08:36:50;;;;;;;8.50;3.60;;;;;;;19.23;nan;101148.84;5089150;28;20055;-68
2022/10/29 08:39:15;;;;;;;6.82;3.17;;;;;;;19.33;nan;101137.81;5077327;28;20437;-68
2022/10/29 08:41:57;;;;;;;5.93;3.03;;;;;;;19.45;nan;101138.06;5089012;28;20036;-68
2022/10/29 08:44:36;;;;;;;8.85;3.90;;;;;;;19.46;nan;101139.75;5087801;28;20109;-69
2022/10/29 08:47:22;;;;;;;;;;;;;;;19.41;nan;101134.97;5087308;28;20040;-68
2022/10/29 08:50:05;;;;;;;6.32;3.67;;;;;;;19.63;nan;101141.09;5087578;28;19916;-68
2022/10/29 08:52:39;;;;;;;5.97;3.63;;;;;;;19.77;nan;101141.22;5087135;28;20082;-68
2022/10/29 08:55:12;;;;;;;5.03;3.22;;;;;;;19.86;nan;101145.41;5086693;28;20040;-68
2022/10/29 08:57:43;;;;;;;6.03;2.97;;;;;;;19.95;nan;101138.84;5086376;28;20436;-68
2022/10/29 09:00:17;;;;;;;4.45;3.03;;;;;;;20.01;nan;101146.09;5087963;28;20036;-69
2022/10/29 09:02:42;;;;;;;4.63;2.63;;;;;;;20.14;nan;101156.91;5085879;28;20562;-68
2022/10/29 09:05:16;;;;;;;6.20;3.00;;;;;;;20.23;nan;101143.28;5091820;28;20115;-68
2022/10/29 09:08:04;;;;;;;7.95;3.45;;;;;;;20.33;nan;101144.59;5066863;28;20035;-68
2022/10/29 09:10:46;;;;;;;4.47;2.75;;;;;;;20.52;nan;101143.00;5082720;28;20396;-68
2022/10/29 09:13:20;;;;;;;;;;;;;;;20.73;nan;101151.94;5070902;28;20047;-68
2022/10/29 09:15:58;;;;;;;5.70;3.17;;;;;;;21.00;nan;101145.59;5090386;28;19912;-68
2022/10/29 09:18:39;;;;;;;5.68;3.13;;;;;;;21.18;nan;101153.03;5090478;28;20127;-68
2022/10/29 09:21:21;;;;;;;6.72;3.00;;;;;;;21.31;nan;101154.91;5090676;28;20032;-68
2022/10/29 09:24:18;;;;;;;5.75;2.95;;;;;;;21.31;nan;101151.38;5102104;28;20045;-68
2022/10/29 09:27:12;;;;;;;5.25;2.70;;;;;;;21.21;nan;101152.66;5088868;28;20036;-68
2022/10/29 09:29:51;;;;;;;7.45;3.35;;;;;;;21.02;nan;101141.88;5090465;28;20033;-69
2022/10/29 09:32:42;;;;;;;6.30;4.00;;;;;;;20.84;nan;101135.22;5091895;28;20120;-68
2022/10/29 09:35:15;;;;;;;9.05;3.88;;;;;;;20.79;nan;101146.59;5090425;28;20032;-68
2022/10/29 09:37:55;;;;;;;;;;;;;;;20.73;nan;101139.34;5091678;28;20297;-68
2022/10/29 09:40:37;;;;;;;9.43;4.35;;;;;;;20.70;nan;101133.56;5090161;28;19959;-68
2022/10/29 09:43:18;;;;;;;7.15;3.67;;;;;;;20.69;nan;101134.56;5090612;28;20152;-68
2022/10/29 09:46:16;;;;;;;5.43;2.75;;;;;;;20.73;nan;101133.97;5090393;28;20035;-68
2022/10/29 09:48:51;;;;;;;6.13;3.42;;;;;;;20.84;nan;101118.28;5086784;28;20497;-68
2022/10/29 09:51:35;;;;;;;5.20;2.80;;;;;;;21.01;nan;101116.84;5088667;28;20680;-69
2022/10/29 09:54:00;;;;;;;7.85;3.10;;;;;;;21.07;nan;101115.19;5078585;28;20036;-68
2022/10/29 09:56:25;;;;;;;8.65;3.55;;;;;;;21.18;nan;101117.25;5089641;28;20059;-68
2022/10/29 09:59:05;;;;;;;6.53;2.90;;;;;;;21.24;nan;101110.22;5089404;28;20497;-68
2022/10/29 10:01:31;;;;;;;7.78;3.22;;;;;;;21.32;nan;101107.31;5081347;28;20040;-68
2022/10/29 10:04:05;;;;;;;6.22;3.17;;;;;;;21.37;nan;101104.81;5059031;28;20033;-69
2022/10/29 10:07:00;;;;;;;7.63;3.60;;;;;;;21.44;nan;101100.28;5086370;28;20044;-68
2022/10/29 10:09:25;;;;;;;5.80;3.22;;;;;;;21.46;nan;101097.41;5086047;28;20512;-69
2022/10/29 10:11:53;;;;;;;6.68;3.35;;;;;;;21.54;nan;101097.16;5069377;28;20035;-68
2022/10/29 10:14:20;;;;;;;9.43;3.83;;;;;;;21.59;nan;101095.50;5087750;28;20060;-68
2022/10/29 10:16:55;;;;;;;11.95;4.03;;;;;;;21.66;nan;101086.59;5085678;28;20036;-68
2022/10/29 10:19:22;;;;;;;7.57;4.13;;;;;;;21.75;nan;101080.75;5081641;28;20307;-69
2022/10/29 10:21:56;;;;;;;7.40;4.05;;;;;;;21.83;nan;101079.69;5088123;28;20388;-68
2022/10/29 10:24:36;;;;;;;7.70;3.42;;;;;;;21.87;nan;101069.34;5088007;28;20036;-68
2022/10/29 10:27:30;;;;;;;6.90;3.70;;;;;;;22.18;nan;101061.31;5078003;28;20028;-68
2022/10/29 10:30:25;;;;;;;7.90;3.03;;;;;;;23.70;nan;101063.00;5082219;28;20032;-68
2022/10/29 10:32:51;;;;;;;10.80;3.40;;;;;;;25.26;nan;101059.50;5054204;28;20128;-68
2022/10/29 10:35:29;;;;;;;7.03;3.42;;;;;;;26.57;nan;101061.59;5085430;28;20186;-69
2022/10/29 10:37:55;;;;;;;7.55;3.35;;;;;;;27.48;nan;101066.81;5085921;28;20048;-69
2022/10/29 10:40:23;;;;;;;7.30;2.92;;;;;;;28.35;nan;101068.66;5086147;28;20131;-69
2022/10/29 10:42:51;;;;;;;;;;;;;;;28.43;nan;101061.09;5084845;28;20032;-66
2022/10/29 10:45:24;;;;;;;8.63;3.58;;;;;;;28.22;nan;101055.50;5085989;28;20363;-69
2022/10/29 10:47:56;;;;;;;9.05;3.67;;;;;;;27.75;nan;101059.56;5080983;28;20032;-69
2022/10/29 10:50:28;;;;;;;8.25;3.70;;;;;;;27.11;nan;101060.03;5076644;28;20039;-69
2022/10/29 10:52:57;;;;;;;5.28;3.03;;;;;;;26.77;nan;101052.97;5083551;28;20047;-69
2022/10/29 10:55:37;;;;;;;7.43;3.10;;;;;;;26.80;nan;101052.50;5085531;28;20910;-69
2022/10/29 10:58:13;;;;;;;6.33;2.77;;;;;;;26.57;nan;101054.28;5084705;28;20290;-69
2022/10/29 11:00:44;;;;;;;7.57;3.63;;;;;;;26.27;nan;101051.84;5084487;28;20266;-69
2022/10/29 11:03:16;;;;;;;8.40;3.42;;;;;;;26.46;nan;101041.59;5067108;28;20491;-69
2022/10/29 11:05:54;;;;;;;8.35;3.60;;;;;;;26.45;nan;101040.75;5087837;28;20028;-69
2022/10/29 11:08:43;;;;;;;6.18;3.30;;;;;;;26.18;nan;101032.44;5084278;28;20363;-69
2022/10/29 11:11:30;;;;;;;8.43;3.47;;;;;;;25.87;nan;101028.31;5062821;28;20059;-69
2022/10/29 11:14:05;;;;;;;8.30;2.90;;;;;;;25.74;nan;101020.44;5081373;28;20036;-69
2022/10/29 11:16:46;;;;;;;7.18;3.08;;;;;;;25.40;nan;101015.69;5084595;28;20036;-68
2022/10/29 11:19:24;;;;;;;;;;;;;;;24.98;nan;101015.03;5082494;28;20032;-68
2022/10/29 11:21:52;;;;;;;8.07;3.20;;;;;;;24.76;nan;101007.47;5079738;28;19915;-68
2022/10/29 11:24:32;;;;;;;8.27;3.17;;;;;;;24.71;nan;101015.47;5085780;28;20032;-69
2022/10/29 11:27:22;;;;;;;6.13;2.75;;;;;;;24.79;nan;101011.59;5084299;28;20473;-68
2022/10/29 11:29:57;;;;;;;4.78;2.60;;;;;;;24.75;nan;101002.31;5084801;28;20028;-68
2022/10/29 11:32:31;;;;;;;7.95;2.88;;;;;;;24.82;nan;100996.78;5081091;28;20536;-69
2022/10/29 11:35:03;;;;;;;;;;;;;;;24.94;nan;100994.91;5083590;28;20032;-68
2022/10/29 11:37:36;;;;;;;6.22;2.55;;;;;;;25.13;nan;100999.13;5086843;28;20277;-68
2022/10/29 11:40:10;;;;;;;5.93;2.38;;;;;;;25.21;nan;100995.25;5075566;28;20061;-69
2022/10/29 11:42:38;;;;;;;7.68;2.58;;;;;;;25.14;nan;100995.34;5087385;28;20025;-69
2022/10/29 11:45:04;;;;;;;12.63;3.53;;;;;;;24.91;nan;100989.97;5087170;28;20078;-69
2022/10/29 11:47:37;;;;;;;8.18;3.17;;;;;;;24.80;nan;100991.59;5080510;28;20037;-69
2022/10/29 11:50:17;;;;;;;6.50;3.00;;;;;;;24.66;nan;100988.28;5080382;28;20211;-69
2022/10/29 11:52:46;;;;;;;6.63;2.50;;;;;;;24.50;nan;100983.56;5086989;28;20047;-69
2022/10/29 11:55:36;;;;;;;3.50;1.98;;;;;;;24.47;nan;100984.06;5085889;28;20093;-68
2022/10/29 11:58:14;;;;;;;8.18;2.60;;;;;;;24.41;nan;100987.63;5069191;28;20460;-70